Time;durP1;ratioP1;P1;durP2;ratioP2;P2;SDS_P1;SDS_P2;PMS_P1;PMS_P2;Temp;Humidity;BMP_temperature;BMP_pressure;BME280_temperature;BME280_humidity;BME280_pressure;Samples;Min_cycle;Max_cycle;Signal;HPM_P1;HPM_P2
2022/02/27 00:00:55;;;;;;;4.97;3.00;;;;;;;1.52;84.38;151758.75;5059476;28;20448;-79
2022/02/27 00:03:31;;;;;;;6.90;3.20;;;;;;;1.54;84.07;151762.56;5065946;28;20444;-79
2022/02/27 00:06:08;;;;;;;4.70;2.90;;;;;;;1.56;84.16;151767.75;5063806;28;20452;-79
2022/02/27 00:08:43;;;;;;;12.97;3.17;;;;;;;1.55;84.07;151765.16;5050733;28;20488;-79
2022/02/27 00:11:19;;;;;;;4.67;3.67;;;;;;;1.53;84.00;151761.34;5066309;28;20440;-80
2022/02/27 00:13:54;;;;;;;6.40;3.47;;;;;;;1.53;84.10;151760.03;5065490;28;20453;-79
2022/02/27 00:16:30;;;;;;;3.97;2.80;;;;;;;1.49;84.29;151749.72;5066908;28;20441;-79
2022/02/27 00:19:06;;;;;;;7.37;3.70;;;;;;;1.41;83.99;151730.47;5063806;28;20454;-80
2022/02/27 00:21:43;;;;;;;11.47;3.67;;;;;;;1.59;83.00;151776.72;5045012;28;20504;-80
2022/02/27 00:24:19;;;;;;;5.43;3.20;;;;;;;1.38;84.99;151721.50;5044385;28;20453;-80
2022/02/27 00:26:54;;;;;;;6.27;3.20;;;;;;;1.27;85.32;151693.22;5046586;28;20457;-79
2022/02/27 00:29:30;;;;;;;6.53;3.30;;;;;;;1.23;85.28;151685.53;5064664;28;20449;-80
2022/02/27 00:32:10;;;;;;;8.00;3.57;;;;;;;1.20;85.62;151677.81;5047530;28;20461;-79
2022/02/27 00:34:46;;;;;;;4.63;3.10;;;;;;;1.18;85.65;151672.69;5048843;28;20453;-80
2022/02/27 00:37:23;;;;;;;7.83;3.33;;;;;;;1.19;85.85;151673.97;5041644;28;20862;-79
2022/02/27 00:39:59;;;;;;;5.50;3.20;;;;;;;1.21;85.87;151680.41;5045345;28;20527;-80
2022/02/27 00:42:35;;;;;;;5.90;3.07;;;;;;;1.18;85.52;151672.69;5062829;28;20562;-79
2022/02/27 00:45:10;;;;;;;5.40;3.37;;;;;;;1.16;85.89;151667.56;5063745;28;20445;-80
2022/02/27 00:47:46;;;;;;;11.20;2.97;;;;;;;1.12;86.64;151655.97;5047847;28;20455;-79
2022/02/27 00:50:22;;;;;;;4.00;3.03;;;;;;;1.10;86.62;151650.84;5049607;28;20479;-79
2022/02/27 00:52:59;;;;;;;4.47;2.93;;;;;;;1.13;86.65;151658.53;5049703;28;20903;-80
2022/02/27 00:55:35;;;;;;;4.60;3.33;;;;;;;1.15;86.92;151664.97;5045846;28;20539;-80
2022/02/27 00:58:11;;;;;;;7.43;3.10;;;;;;;1.16;86.89;151667.56;5032733;28;20446;-79
2022/02/27 01:00:50;;;;;;;7.73;3.27;;;;;;;1.13;86.71;151659.84;5023351;28;20450;-80
2022/02/27 01:03:25;;;;;;;3.00;2.70;;;;;;;1.11;87.21;151653.41;5046244;28;20487;-80
2022/02/27 01:06:01;;;;;;;8.33;3.30;;;;;;;1.06;87.39;151640.56;5045583;28;20456;-80
2022/02/27 01:08:39;;;;;;;8.53;3.77;;;;;;;1.08;87.12;151647.00;5030842;28;20482;-80
2022/02/27 01:11:15;;;;;;;7.70;3.03;;;;;;;1.07;87.08;151643.13;5026582;28;20557;-80
2022/02/27 01:13:50;;;;;;;6.90;3.13;;;;;;;1.10;87.50;151652.13;5032421;28;20470;-79
2022/02/27 01:16:26;;;;;;;7.33;3.30;;;;;;;1.09;87.75;151648.25;5037096;28;20452;-80
2022/02/27 01:19:02;;;;;;;7.80;3.17;;;;;;;1.01;87.70;151628.97;5048425;28;20490;-80
2022/02/27 01:21:38;;;;;;;4.40;2.50;;;;;;;1.03;87.62;151634.09;5032950;28;20441;-79
2022/02/27 01:24:18;;;;;;;4.60;2.97;;;;;;;0.99;87.95;151623.84;5040901;28;20458;-79
2022/02/27 01:26:53;;;;;;;7.80;2.80;;;;;;;0.95;88.53;151613.59;5042747;28;20532;-79
2022/02/27 01:29:29;;;;;;;15.63;3.87;;;;;;;0.98;87.90;151621.28;5044484;28;20536;-79
2022/02/27 01:32:06;;;;;;;6.47;3.33;;;;;;;0.96;87.81;151614.84;5032254;28;20446;-79
2022/02/27 01:34:41;;;;;;;4.23;3.10;;;;;;;0.92;88.16;151605.91;5044315;28;20783;-79
2022/02/27 01:37:17;;;;;;;6.00;3.30;;;;;;;0.91;88.34;151602.00;5027344;28;20460;-79
2022/02/27 01:39:54;;;;;;;3.73;3.07;;;;;;;0.86;88.52;151590.47;5029153;28;20529;-79
2022/02/27 01:42:30;;;;;;;5.03;3.50;;;;;;;0.87;88.92;151591.75;5030256;28;20791;-79
2022/02/27 01:45:07;;;;;;;6.97;3.67;;;;;;;0.84;89.05;151584.06;5046642;28;20462;-79
2022/02/27 01:47:42;;;;;;;5.53;3.10;;;;;;;0.81;89.14;151577.63;5042798;28;20498;-79
2022/02/27 01:50:18;;;;;;;4.10;2.67;;;;;;;0.78;89.25;151569.91;5041551;28;20481;-79
2022/02/27 01:52:54;;;;;;;6.00;3.33;;;;;;;0.72;88.70;151554.50;5061813;28;20444;-78
2022/02/27 01:55:32;;;;;;;4.97;3.50;;;;;;;0.68;89.83;151544.25;5064343;28;20955;-79
2022/02/27 01:58:07;;;;;;;9.80;3.70;;;;;;;0.68;89.07;151542.97;5065340;28;20872;-78
2022/02/27 02:00:43;;;;;;;4.73;2.47;;;;;;;0.69;88.77;151546.78;5043626;28;20456;-79
2022/02/27 02:03:18;;;;;;;3.77;3.13;;;;;;;0.72;89.08;151554.50;5063927;28;20473;-79
2022/02/27 02:05:54;;;;;;;5.03;3.83;;;;;;;0.68;89.15;151544.25;5062340;28;20973;-79
2022/02/27 02:08:30;;;;;;;5.40;3.10;;;;;;;0.67;89.67;151540.38;5050520;28;20454;-78
2022/02/27 02:11:08;;;;;;;5.33;2.80;;;;;;;0.61;89.28;151526.25;5059362;28;20958;-78
2022/02/27 02:13:44;;;;;;;3.70;2.67;;;;;;;0.57;89.32;151516.00;5065218;28;20932;-78
2022/02/27 02:16:20;;;;;;;3.60;2.43;;;;;;;0.59;89.74;151522.41;5049227;28;20882;-78
2022/02/27 02:18:55;;;;;;;4.83;2.93;;;;;;;0.57;89.74;151517.28;5044082;28;20555;-79
2022/02/27 02:21:38;;;;;;;4.47;2.97;;;;;;;0.55;90.00;151510.88;5045943;28;20464;-78
2022/02/27 02:24:15;;;;;;;6.57;2.50;;;;;;;0.50;90.00;151499.28;5050738;28;20454;-78
2022/02/27 02:26:51;;;;;;;6.90;3.43;;;;;;;0.53;90.43;151505.75;5069430;28;20813;-79
2022/02/27 02:29:27;;;;;;;5.40;3.37;;;;;;;0.53;90.17;151505.75;5047427;28;20784;-79
2022/02/27 02:32:03;;;;;;;8.53;3.00;;;;;;;0.47;90.19;151491.63;5046983;28;20441;-79
2022/02/27 02:34:38;;;;;;;3.20;2.20;;;;;;;0.47;90.24;151490.34;5062878;28;20548;-78
2022/02/27 02:37:15;;;;;;;5.13;2.70;;;;;;;0.46;90.89;151487.75;5044188;28;20863;-78
2022/02/27 02:39:53;;;;;;;4.20;2.93;;;;;;;0.47;90.87;151490.34;5050799;28;20477;-78
2022/02/27 02:42:29;;;;;;;4.20;2.80;;;;;;;0.42;91.22;151478.78;5042866;28;20981;-79
2022/02/27 02:45:06;;;;;;;5.77;3.43;;;;;;;0.41;91.44;151476.22;5046386;28;20448;-79
2022/02/27 02:47:42;;;;;;;4.37;3.13;;;;;;;0.44;90.57;151482.63;5062177;28;20454;-79
2022/02/27 02:50:19;;;;;;;4.40;2.80;;;;;;;0.44;90.99;151482.63;5047886;28;20564;-79
2022/02/27 02:52:56;;;;;;;9.47;2.70;;;;;;;0.45;90.61;151485.22;5050068;28;20789;-79
2022/02/27 02:55:32;;;;;;;4.80;2.60;;;;;;;0.42;90.82;151477.50;5023574;28;20439;-79
2022/02/27 02:58:08;;;;;;;6.80;3.77;;;;;;;0.49;91.26;151495.44;5047998;28;20441;-79
2022/02/27 03:00:44;;;;;;;4.30;3.07;;;;;;;0.45;91.00;151485.22;5033374;28;20466;-78
2022/02/27 03:03:20;;;;;;;6.57;3.40;;;;;;;0.35;91.33;151459.50;5045919;28;20472;-79
2022/02/27 03:05:55;;;;;;;7.73;3.27;;;;;;;0.34;91.17;151456.97;5045642;28;20529;-78
2022/02/27 03:08:32;;;;;;;7.90;3.47;;;;;;;0.30;91.52;151446.66;5047392;28;20466;-78
2022/02/27 03:11:08;;;;;;;5.40;2.90;;;;;;;0.38;91.95;151468.50;5052323;28;20447;-78
2022/02/27 03:13:44;;;;;;;5.00;3.30;;;;;;;0.40;91.87;151473.63;5050133;28;20547;-78
2022/02/27 03:16:19;;;;;;;6.13;3.47;;;;;;;0.42;91.43;151478.78;5048594;28;20868;-78
2022/02/27 03:18:55;;;;;;;6.07;3.43;;;;;;;0.33;91.57;151455.66;5046453;28;20458;-78
2022/02/27 03:21:30;;;;;;;5.60;3.70;;;;;;;0.32;92.91;151453.06;5024134;28;20458;-79
2022/02/27 03:24:07;;;;;;;6.43;3.10;;;;;;;0.35;92.24;151459.50;5048048;28;20991;-78
2022/02/27 03:26:45;;;;;;;15.10;3.87;;;;;;;0.34;92.98;151458.25;5029604;28;20493;-79
2022/02/27 03:29:20;;;;;;;5.13;3.10;;;;;;;0.31;92.54;151450.53;5031070;28;20800;-78
2022/02/27 03:31:56;;;;;;;5.40;3.27;;;;;;;0.26;92.19;151437.72;5040666;28;20455;-79
2022/02/27 03:34:32;;;;;;;7.07;3.67;;;;;;;0.28;92.98;151441.53;5045493;28;20447;-79
2022/02/27 03:37:07;;;;;;;7.13;4.10;;;;;;;0.32;92.67;151453.06;5033424;28;20535;-78
2022/02/27 03:39:44;;;;;;;7.23;2.93;;;;;;;0.34;92.68;151456.97;5027933;28;20486;-78
2022/02/27 03:42:19;;;;;;;4.90;3.03;;;;;;;0.32;92.70;151453.06;5046657;28;20447;-78
2022/02/27 03:44:55;;;;;;;5.80;2.90;;;;;;;0.25;92.46;151433.84;5048884;28;20457;-78
2022/02/27 03:47:31;;;;;;;6.33;4.00;;;;;;;0.23;93.29;151428.72;5030897;28;20447;-78
2022/02/27 03:50:08;;;;;;;7.37;3.23;;;;;;;0.24;93.12;151432.53;5056769;28;20469;-78
2022/02/27 03:52:44;;;;;;;7.93;3.97;;;;;;;0.23;93.29;151430.00;5042802;28;20466;-79
2022/02/27 03:55:21;;;;;;;5.27;3.10;;;;;;;0.17;93.65;151414.59;5065129;28;20461;-79
2022/02/27 03:57:56;;;;;;;6.00;3.63;;;;;;;0.16;93.94;151412.00;5067457;28;20525;-79
2022/02/27 04:00:32;;;;;;;5.53;3.27;;;;;;;0.21;94.06;151423.59;5081323;28;20445;-79
2022/02/27 04:03:10;;;;;;;11.93;3.90;;;;;;;0.21;94.39;151424.88;5068272;28;20461;-79
2022/02/27 04:05:45;;;;;;;6.20;3.10;;;;;;;0.18;93.89;151415.88;5065206;28;20441;-79
2022/02/27 04:08:21;;;;;;;7.57;3.93;;;;;;;0.17;94.21;151413.28;5064696;28;20454;-79
2022/02/27 04:10:58;;;;;;;6.40;3.90;;;;;;;0.15;95.01;151408.19;5063180;28;20468;-79
2022/02/27 04:13:34;;;;;;;6.13;4.10;;;;;;;0.16;94.31;151410.75;5042402;28;20547;-79
2022/02/27 04:16:09;;;;;;;5.73;3.57;;;;;;;0.17;94.88;151413.28;5065295;28;20443;-79
2022/02/27 04:18:44;;;;;;;6.23;3.63;;;;;;;0.17;94.84;151413.28;5065521;28;20485;-79
2022/02/27 04:21:20;;;;;;;6.80;3.60;;;;;;;0.17;94.86;151413.28;5046103;28;20549;-79
2022/02/27 04:23:56;;;;;;;8.90;4.07;;;;;;;0.14;95.38;151405.59;5063655;28;20468;-79
2022/02/27 04:26:33;;;;;;;6.00;3.67;;;;;;;0.14;94.86;151405.59;5067249;28;20953;-79
2022/02/27 04:29:08;;;;;;;8.40;4.10;;;;;;;0.16;95.01;151412.00;5048809;28;20455;-79
2022/02/27 04:31:44;;;;;;;7.73;4.20;;;;;;;0.15;95.07;151408.19;5049976;28;21131;-79
2022/02/27 04:34:19;;;;;;;13.97;3.93;;;;;;;0.12;95.14;151400.47;5061116;28;20513;-79
2022/02/27 04:36:55;;;;;;;6.70;3.60;;;;;;;0.06;94.92;151385.06;5063647;28;20456;-79
2022/02/27 04:39:31;;;;;;;7.87;4.20;;;;;;;0.04;96.22;151379.94;5058249;28;20904;-79
2022/02/27 04:42:08;;;;;;;6.43;3.60;;;;;;;0.04;95.74;151381.22;5065610;28;20451;-79
2022/02/27 04:44:43;;;;;;;6.77;4.50;;;;;;;0.05;95.82;151382.50;5060492;28;20486;-79
2022/02/27 04:47:19;;;;;;;5.80;3.70;;;;;;;0.03;95.78;151378.63;5043939;28;20708;-79
2022/02/27 04:49:54;;;;;;;6.60;4.07;;;;;;;0.00;96.38;151372.22;5063616;28;20492;-80
2022/02/27 04:52:30;;;;;;;7.57;4.00;;;;;;;0.01;96.28;151373.53;5065372;28;20449;-79
2022/02/27 04:55:06;;;;;;;8.80;4.30;;;;;;;-0.03;96.77;151364.53;5068613;28;20449;-79
2022/02/27 04:57:43;;;;;;;5.50;3.70;;;;;;;-0.01;97.37;151369.69;5066916;28;20442;-79
2022/02/27 05:00:19;;;;;;;5.57;3.20;;;;;;;0.01;96.89;151373.53;5066678;28;20445;-79
2022/02/27 05:02:54;;;;;;;9.10;4.03;;;;;;;0.08;97.19;151390.22;5049301;28;20456;-80
2022/02/27 05:05:30;;;;;;;7.80;4.53;;;;;;;0.07;96.85;151387.63;5059900;28;20457;-80
2022/02/27 05:08:06;;;;;;;8.30;4.63;;;;;;;0.12;96.52;151401.75;5063053;28;20449;-79
2022/02/27 05:10:41;;;;;;;8.00;4.43;;;;;;;0.14;96.11;151406.88;5064241;28;20459;-80
2022/02/27 05:13:18;;;;;;;9.50;5.23;;;;;;;0.13;96.67;151404.34;5062904;28;20536;-79
2022/02/27 05:15:53;;;;;;;11.33;5.00;;;;;;;0.09;97.03;151392.75;5065422;28;20801;-80
2022/02/27 05:18:30;;;;;;;7.57;3.70;;;;;;;0.06;96.68;151385.06;5064920;28;20549;-80
2022/02/27 05:21:06;;;;;;;7.97;4.33;;;;;;;0.05;96.59;151383.81;5068254;28;20438;-79
2022/02/27 05:23:41;;;;;;;6.53;4.30;;;;;;;0.05;97.04;151382.50;5062030;28;20508;-79
2022/02/27 05:26:17;;;;;;;9.50;4.03;;;;;;;0.03;97.07;151378.63;5064689;28;20448;-79
2022/02/27 05:28:54;;;;;;;10.20;5.27;;;;;;;0.05;96.80;151382.50;5064676;28;20449;-79
2022/02/27 05:31:29;;;;;;;5.73;3.90;;;;;;;0.05;96.55;151382.50;5046570;28;20453;-79
2022/02/27 05:34:05;;;;;;;9.53;6.00;;;;;;;0.03;96.67;151377.41;5059268;28;20781;-80
2022/02/27 05:36:41;;;;;;;9.07;6.00;;;;;;;0.06;96.62;151385.06;5049667;28;20451;-79
2022/02/27 05:39:17;;;;;;;6.20;4.60;;;;;;;0.06;96.08;151386.34;5040930;28;20447;-79
2022/02/27 05:41:52;;;;;;;7.30;5.40;;;;;;;-0.03;96.72;151364.53;5048873;28;20454;-80
2022/02/27 05:44:29;;;;;;;6.67;4.67;;;;;;;0.14;96.25;151405.59;5063017;28;20990;-79
2022/02/27 05:47:05;;;;;;;8.50;4.57;;;;;;;0.05;96.37;151382.50;5066926;28;20453;-79
2022/02/27 05:49:40;;;;;;;7.17;4.60;;;;;;;0.02;96.50;151374.81;5061875;28;20469;-80
2022/02/27 05:52:17;;;;;;;7.80;5.00;;;;;;;0.03;97.16;151377.41;5062973;28;20448;-80
2022/02/27 05:54:53;;;;;;;7.10;5.17;;;;;;;0.02;96.55;151374.81;5044139;28;20447;-80
2022/02/27 05:57:30;;;;;;;6.33;4.67;;;;;;;0.03;96.65;151377.41;5043135;28;20465;-79
2022/02/27 06:00:08;;;;;;;9.10;5.03;;;;;;;0.02;97.05;151374.81;5049455;28;20464;-79
2022/02/27 06:02:46;;;;;;;8.70;5.30;;;;;;;0.04;96.62;151379.94;5060166;28;20492;-80
2022/02/27 06:05:22;;;;;;;9.27;5.40;;;;;;;0.02;97.00;151374.81;5047925;28;20505;-79
2022/02/27 06:07:58;;;;;;;5.93;4.37;;;;;;;0.01;96.87;151373.53;5062564;28;20467;-79
2022/02/27 06:10:33;;;;;;;5.63;4.37;;;;;;;-0.02;96.43;151365.81;5060248;28;20952;-79
2022/02/27 06:13:09;;;;;;;7.27;4.70;;;;;;;-0.02;96.64;151365.81;5049465;28;20544;-79
2022/02/27 06:15:46;;;;;;;8.30;5.10;;;;;;;-0.06;96.41;151356.88;5065401;28;20433;-79
2022/02/27 06:18:22;;;;;;;7.13;5.13;;;;;;;0.06;96.48;151385.06;5059582;28;20458;-79
2022/02/27 06:20:58;;;;;;;7.90;4.40;;;;;;;0.07;96.87;151388.94;5064945;28;20450;-79
2022/02/27 06:23:33;;;;;;;6.47;4.40;;;;;;;0.11;96.35;151397.94;5061314;28;20482;-79
2022/02/27 06:26:09;;;;;;;9.40;4.80;;;;;;;0.14;96.78;151405.59;5070995;28;20441;-80
2022/02/27 06:28:45;;;;;;;6.13;4.70;;;;;;;0.14;96.72;151405.59;5064699;28;20466;-80
2022/02/27 06:31:22;;;;;;;7.43;5.00;;;;;;;0.18;96.23;151415.88;5049820;28;20452;-79
2022/02/27 06:33:57;;;;;;;7.67;5.27;;;;;;;0.22;95.97;151426.13;5044690;28;20453;-80
2022/02/27 06:36:33;;;;;;;7.90;4.70;;;;;;;0.27;95.46;151438.97;5046865;28;20447;-80
2022/02/27 06:39:09;;;;;;;8.07;5.10;;;;;;;0.35;95.56;151459.50;5066326;28;20457;-80
2022/02/27 06:41:48;;;;;;;9.37;4.80;;;;;;;0.41;95.56;151474.91;5067272;28;20439;-79
2022/02/27 06:44:24;;;;;;;9.67;5.77;;;;;;;0.51;95.36;151500.56;5069576;28;20471;-79
2022/02/27 06:47:01;;;;;;;10.20;5.53;;;;;;;0.64;94.23;151533.94;5068676;28;20445;-80
2022/02/27 06:49:36;;;;;;;7.83;4.97;;;;;;;0.77;93.71;151567.34;5058383;28;20580;-80
2022/02/27 06:52:12;;;;;;;6.93;4.70;;;;;;;0.87;93.41;151593.06;5027801;28;20453;-80
2022/02/27 06:54:48;;;;;;;8.80;5.60;;;;;;;1.05;92.56;151638.00;5049057;28;20967;-80
2022/02/27 06:57:23;;;;;;;8.93;5.83;;;;;;;1.12;92.20;151657.25;5047711;28;20442;-80
2022/02/27 06:59:58;;;;;;;8.20;5.33;;;;;;;1.27;91.55;151693.22;5040632;28;20530;-80
2022/02/27 07:02:36;;;;;;;7.70;4.80;;;;;;;1.30;90.60;151700.94;5032151;28;20446;-80
2022/02/27 07:05:11;;;;;;;9.60;5.10;;;;;;;1.41;89.49;151729.16;5030605;28;20475;-80
2022/02/27 07:07:47;;;;;;;6.87;4.90;;;;;;;1.59;89.21;151775.47;5044933;28;20435;-80
2022/02/27 07:10:22;;;;;;;9.23;6.07;;;;;;;1.59;89.51;151775.47;5029695;28;20824;-80
2022/02/27 07:12:58;;;;;;;11.93;6.23;;;;;;;1.60;88.56;151778.00;5027064;28;20945;-80
2022/02/27 07:15:34;;;;;;;11.03;6.40;;;;;;;1.71;88.21;151806.28;5024626;28;20460;-80
2022/02/27 07:18:11;;;;;;;12.77;5.30;;;;;;;1.97;87.54;151873.13;5022810;28;20443;-80
2022/02/27 07:20:46;;;;;;;8.43;6.80;;;;;;;2.06;86.36;151896.28;5044128;28;20449;-80
2022/02/27 07:23:22;;;;;;;9.90;5.43;;;;;;;2.25;86.47;151945.09;5044594;28;20453;-80
2022/02/27 07:25:58;;;;;;;7.97;5.13;;;;;;;2.49;86.34;152005.53;5048435;28;20453;-80
2022/02/27 07:28:33;;;;;;;7.37;4.93;;;;;;;2.54;84.34;152018.44;5022197;28;20452;-80
2022/02/27 07:31:09;;;;;;;9.80;5.70;;;;;;;2.72;83.53;152063.44;5047637;28;20948;-80
2022/02/27 07:33:46;;;;;;;7.80;5.47;;;;;;;2.87;82.15;152102.00;5036956;28;20997;-80
2022/02/27 07:36:22;;;;;;;7.57;4.87;;;;;;;2.93;81.77;152117.47;5021729;28;20481;-80
2022/02/27 07:38:58;;;;;;;7.43;5.53;;;;;;;2.88;80.96;152104.59;5049837;28;20463;-80
2022/02/27 07:41:34;;;;;;;7.13;5.10;;;;;;;3.28;80.59;152207.56;5043924;28;20821;-80
2022/02/27 07:44:09;;;;;;;11.57;5.87;;;;;;;3.64;78.54;152300.22;5048075;28;20701;-80
2022/02/27 07:46:47;;;;;;;7.50;5.60;;;;;;;3.44;78.07;152248.69;5045704;28;20447;-80
2022/02/27 07:49:23;;;;;;;11.40;6.60;;;;;;;3.67;77.42;152307.94;5054115;28;20479;-80
2022/02/27 07:51:59;;;;;;;7.63;5.67;;;;;;;4.00;77.12;152391.59;5063907;28;20837;-80
2022/02/27 07:54:35;;;;;;;6.60;5.10;;;;;;;4.06;76.18;152405.78;5062274;28;20491;-80
2022/02/27 07:57:10;;;;;;;7.93;5.47;;;;;;;4.30;74.99;152467.59;5061831;28;20806;-80
2022/02/27 07:59:46;;;;;;;7.00;4.77;;;;;;;4.44;74.17;152502.38;5061581;28;20515;-80
2022/02/27 08:02:22;;;;;;;7.43;5.03;;;;;;;4.29;74.39;152465.00;5080393;28;20453;-80
2022/02/27 08:04:58;;;;;;;8.23;5.40;;;;;;;4.51;73.23;152521.69;5062622;28;20459;-80
2022/02/27 08:07:34;;;;;;;8.20;5.40;;;;;;;4.46;72.96;152507.53;5060996;28;20444;-80
2022/02/27 08:10:11;;;;;;;7.40;5.53;;;;;;;4.15;73.81;152430.28;5057058;28;20828;-80
2022/02/27 08:12:46;;;;;;;9.10;5.20;;;;;;;4.28;73.62;152462.47;5072144;28;20789;-80
2022/02/27 08:15:23;;;;;;;7.03;4.97;;;;;;;4.40;74.35;152493.34;5045269;28;20453;-80
2022/02/27 08:17:58;;;;;;;5.90;4.60;;;;;;;4.49;70.97;152515.25;5061992;28;20488;-80
2022/02/27 08:20:35;;;;;;;7.10;4.70;;;;;;;4.26;73.06;152457.31;5062459;28;20461;-80
2022/02/27 08:23:11;;;;;;;5.53;4.93;;;;;;;4.29;72.47;152466.31;5062482;28;20522;-81
2022/02/27 08:25:47;;;;;;;6.70;5.23;;;;;;;4.10;72.38;152416.09;5061552;28;20474;-80
2022/02/27 08:28:23;;;;;;;7.70;5.50;;;;;;;4.00;73.85;152390.31;5062301;28;20443;-81
2022/02/27 08:30:59;;;;;;;6.57;4.63;;;;;;;4.37;73.43;152485.63;5043139;28;20610;-81
2022/02/27 08:33:35;;;;;;;7.60;4.67;;;;;;;4.43;72.16;152499.78;5063569;28;20435;-80
2022/02/27 08:36:15;;;;;;;8.40;5.10;;;;;;;4.49;73.36;152516.56;5065357;28;20544;-80
2022/02/27 08:38:51;;;;;;;5.93;4.67;;;;;;;4.38;71.76;152488.22;5042320;28;20540;-80
2022/02/27 08:41:27;;;;;;;8.60;5.57;;;;;;;4.37;71.17;152484.38;5063872;28;20459;-81
2022/02/27 08:44:03;;;;;;;6.03;5.10;;;;;;;3.99;72.50;152387.75;5063864;28;20454;-80
2022/02/27 08:46:39;;;;;;;9.90;5.37;;;;;;;3.98;73.74;152385.16;5047340;28;20812;-80
2022/02/27 08:49:16;;;;;;;9.53;6.27;;;;;;;4.32;73.02;152472.75;5064307;28;20472;-80
2022/02/27 08:51:53;;;;;;;6.70;4.53;;;;;;;4.33;72.93;152475.34;5066295;28;20447;-80
2022/02/27 08:54:29;;;;;;;7.53;5.00;;;;;;;4.30;71.64;152467.59;5067150;28;20438;-80
2022/02/27 08:57:05;;;;;;;8.80;5.70;;;;;;;4.10;72.58;152416.09;5080818;28;20834;-80
2022/02/27 08:59:40;;;;;;;7.73;5.70;;;;;;;4.22;73.31;152448.28;5049985;28;20495;-80
2022/02/27 09:02:16;;;;;;;7.60;5.43;;;;;;;4.37;71.94;152485.63;5066894;28;20450;-80
2022/02/27 09:04:51;;;;;;;6.40;5.00;;;;;;;4.12;71.67;152422.53;5045244;28;20465;-80
2022/02/27 09:07:28;;;;;;;5.40;4.40;;;;;;;4.26;71.83;152457.31;5064309;28;20437;-80
2022/02/27 09:10:05;;;;;;;8.77;6.13;;;;;;;4.08;71.44;152410.91;5049603;28;20477;-80
2022/02/27 09:12:41;;;;;;;5.87;4.63;;;;;;;4.08;71.96;152410.91;5059947;28;20916;-80
2022/02/27 09:15:17;;;;;;;6.20;4.70;;;;;;;4.13;72.31;152423.84;5044768;28;20544;-80
2022/02/27 09:17:53;;;;;;;8.80;4.87;;;;;;;4.30;70.76;152467.59;5037374;28;20449;-80
2022/02/27 09:20:29;;;;;;;10.33;5.60;;;;;;;4.16;70.68;152431.53;5062463;28;20457;-79
2022/02/27 09:23:05;;;;;;;6.20;4.07;;;;;;;4.30;71.65;152468.91;5048360;28;20762;-80
2022/02/27 09:25:41;;;;;;;4.10;3.00;;;;;;;4.31;70.25;152470.19;5061325;28;20481;-79
2022/02/27 09:28:17;;;;;;;7.13;4.80;;;;;;;4.06;71.12;152405.78;5047700;28;20457;-80
2022/02/27 09:30:52;;;;;;;6.00;3.77;;;;;;;4.17;71.11;152434.13;5063106;28;20447;-79
2022/02/27 09:33:30;;;;;;;5.57;4.70;;;;;;;4.31;70.63;152471.44;5059285;28;20836;-80
2022/02/27 09:36:10;;;;;;;4.90;4.37;;;;;;;4.32;68.93;152474.03;5066120;28;20529;-79
2022/02/27 09:38:47;;;;;;;9.47;5.37;;;;;;;4.37;70.63;152485.63;5075104;28;20528;-79
2022/02/27 09:41:23;;;;;;;5.73;3.63;;;;;;;4.69;69.08;152568.06;5042776;28;20485;-79
2022/02/27 09:44:00;;;;;;;7.27;4.37;;;;;;;4.67;68.12;152561.63;5058511;28;20438;-79
2022/02/27 09:46:36;;;;;;;4.70;3.17;;;;;;;4.73;66.09;152578.41;5049888;28;20437;-79
2022/02/27 09:49:12;;;;;;;5.30;3.60;;;;;;;4.73;65.67;152578.41;5064833;28;20482;-79
2022/02/27 09:51:47;;;;;;;8.83;3.50;;;;;;;4.79;65.32;152593.84;5051786;28;20512;-79
2022/02/27 09:54:24;;;;;;;7.60;3.60;;;;;;;4.81;64.31;152599.03;5064863;28;20477;-78
2022/02/27 09:57:00;;;;;;;6.47;4.60;;;;;;;5.01;64.14;152649.25;5048378;28;20453;-78
2022/02/27 09:59:36;;;;;;;9.10;5.10;;;;;;;5.02;65.23;152650.56;5046845;28;20445;-78
2022/02/27 10:02:12;;;;;;;5.70;3.20;;;;;;;4.99;63.14;152642.81;5062760;28;20457;-79
2022/02/27 10:04:50;;;;;;;5.97;4.00;;;;;;;4.98;61.25;152640.28;5065564;28;20485;-78
2022/02/27 10:07:57;;;;;;;6.73;2.83;;;;;;;4.92;61.01;152627.34;5064068;28;20470;-78
2022/02/27 10:10:34;;;;;;;4.10;3.60;;;;;;;4.98;62.13;152641.53;5068098;28;20475;-78
2022/02/27 10:13:09;;;;;;;5.33;3.60;;;;;;;5.02;63.59;152650.56;5062782;28;20953;-78
2022/02/27 10:16:03;;;;;;;5.90;4.40;;;;;;;5.02;61.89;152650.56;5065625;28;20456;-78
2022/02/27 10:18:40;;;;;;;5.90;3.90;;;;;;;5.00;62.42;152646.72;5051937;28;20711;-78
2022/02/27 10:21:24;;;;;;;7.70;4.77;;;;;;;4.74;62.31;152580.97;5066898;28;20809;-78
2022/02/27 10:24:01;;;;;;;5.27;2.73;;;;;;;4.81;62.42;152599.03;5063028;28;20434;-78
2022/02/27 10:26:40;;;;;;;5.70;4.20;;;;;;;4.97;62.53;152637.69;5067065;28;20482;-78
2022/02/27 10:29:17;;;;;;;5.87;3.60;;;;;;;5.14;62.14;152682.78;5067709;28;20449;-78
2022/02/27 10:31:55;;;;;;;7.90;3.20;;;;;;;4.98;61.06;152640.28;5066336;28;20462;-80
2022/02/27 10:34:31;;;;;;;5.70;4.93;;;;;;;4.94;63.47;152631.22;5063507;28;20451;-78
2022/02/27 10:37:08;;;;;;;5.60;4.00;;;;;;;5.10;61.55;152672.47;5074577;28;20539;-78
2022/02/27 10:39:48;;;;;;;4.80;3.37;;;;;;;5.01;60.33;152647.97;5065802;28;20446;-78
2022/02/27 10:42:27;;;;;;;3.83;2.67;;;;;;;4.85;58.07;152609.31;5068315;28;20457;-78
2022/02/27 10:45:05;;;;;;;3.27;2.07;;;;;;;4.82;54.98;152601.56;5049975;28;20455;-78
2022/02/27 10:47:40;;;;;;;4.80;2.87;;;;;;;4.93;56.47;152628.63;5052390;28;20463;-78
2022/02/27 10:50:18;;;;;;;3.67;2.33;;;;;;;5.04;57.21;152655.69;5063119;28;20469;-78
2022/02/27 10:52:54;;;;;;;5.40;3.70;;;;;;;4.80;57.84;152595.13;5063440;28;20947;-78
2022/02/27 10:55:32;;;;;;;5.50;3.10;;;;;;;4.90;57.22;152620.91;5062808;28;20465;-79
2022/02/27 10:58:09;;;;;;;3.43;2.43;;;;;;;4.84;54.96;152606.72;5066272;28;20438;-79
2022/02/27 11:00:45;;;;;;;4.33;3.33;;;;;;;4.96;55.71;152635.06;5047807;28;20853;-79
2022/02/27 11:03:20;;;;;;;3.63;2.43;;;;;;;5.14;55.59;152681.47;5066990;28;20468;-79
2022/02/27 11:05:56;;;;;;;4.70;3.50;;;;;;;5.18;55.35;152691.81;5065503;28;20481;-79
2022/02/27 11:08:31;;;;;;;3.33;2.73;;;;;;;5.27;55.83;152716.28;5052581;28;20454;-79
2022/02/27 11:11:08;;;;;;;3.83;2.83;;;;;;;5.38;53.76;152744.66;5064624;28;20445;-79
2022/02/27 11:13:45;;;;;;;6.17;3.90;;;;;;;5.33;53.68;152730.47;5065038;28;20430;-79
2022/02/27 11:16:21;;;;;;;5.70;3.70;;;;;;;5.25;53.15;152711.13;5067243;28;20450;-79
2022/02/27 11:18:57;;;;;;;3.70;3.10;;;;;;;5.29;53.81;152721.47;5065244;28;20469;-79
2022/02/27 11:21:34;;;;;;;3.27;2.97;;;;;;;5.40;54.14;152748.56;5059618;28;20793;-79
2022/02/27 11:24:11;;;;;;;6.70;3.03;;;;;;;5.45;52.71;152762.69;5043025;28;20478;-79
2022/02/27 11:26:47;;;;;;;4.30;3.30;;;;;;;5.38;52.93;152744.66;5047359;28;20551;-78
2022/02/27 11:29:24;;;;;;;5.17;3.10;;;;;;;5.40;52.26;152748.56;5065489;28;21377;-79
2022/02/27 11:32:00;;;;;;;3.50;2.63;;;;;;;5.36;52.68;152738.22;5045134;28;20449;-79
2022/02/27 11:34:41;;;;;;;4.50;3.57;;;;;;;5.42;53.34;152753.69;5064796;28;20442;-79
2022/02/27 11:37:17;;;;;;;5.30;3.00;;;;;;;5.45;52.62;152761.44;5049599;28;20454;-79
2022/02/27 11:40:28;;;;;;;3.33;3.03;;;;;;;5.43;53.04;152756.25;5063789;28;20532;-79
2022/02/27 11:43:04;;;;;;;4.40;2.83;;;;;;;5.50;52.10;152775.63;5061725;28;20445;-79
2022/02/27 11:45:58;;;;;;;6.00;3.73;;;;;;;5.47;52.22;152766.59;5064947;28;20481;-79
2022/02/27 11:48:55;;;;;;;4.10;3.10;;;;;;;5.52;52.85;152780.78;5063939;28;20431;-79
2022/02/27 11:51:45;;;;;;;3.27;2.33;;;;;;;5.63;52.31;152806.56;5068365;28;20460;-79
2022/02/27 11:54:22;;;;;;;3.83;2.63;;;;;;;5.38;52.30;152743.34;5045729;28;20459;-79
2022/02/27 11:57:13;;;;;;;4.20;3.10;;;;;;;5.42;51.96;152753.69;5055252;28;20453;-79
2022/02/27 11:59:58;;;;;;;4.37;3.47;;;;;;;5.45;52.95;152761.44;5068084;28;20433;-79
2022/02/27 12:02:38;;;;;;;3.00;2.17;;;;;;;5.37;52.24;152740.81;5063674;28;20438;-79
2022/02/27 12:05:16;;;;;;;5.23;2.90;;;;;;;5.40;52.45;152748.56;5065261;28;20477;-79
2022/02/27 12:08:11;;;;;;;5.97;3.67;;;;;;;5.26;53.70;152712.44;5054536;28;20457;-78
2022/02/27 12:10:49;;;;;;;5.43;4.00;;;;;;;5.37;52.91;152740.81;5068976;28;20568;-79
2022/02/27 12:13:28;;;;;;;5.40;3.13;;;;;;;5.37;52.61;152742.09;5051804;28;20453;-79
2022/02/27 12:16:06;;;;;;;6.97;4.10;;;;;;;5.48;54.27;152769.19;5054163;28;20437;-79